Nurlat, Russia
Current Conditions -  °F | °C
As of 4:00 PM on Friday 28 Nov 2014 (Local Time) from UWWW Reporting Station
Haze Haze  
Wind Chill: 11°   Ceiling: 600
Heat Index: 18°   Visibility: 2.2mi
Dew Point: 16°   Wind: 4mph
Humidity: 93%   Direction: 40°NE
Pressure: 30.65"   Gusts: NA
Location:  54.43°N, 50.77°E
Report Text: UWWW 281300Z 04002MPS 3600 BR OVC006 M08/M09 Q1038 0545034515//99// NOSIG RMK QFE765/1020
Loading
Personal Weather Stations






























Interactive Weather Map New forecast layout! Learn more

10-Day Weather Forecast

Advertisements
Track Severe Weather on mobile